sensor_id;sensor_type;location;lat;lon;timestamp;temperature;humidity
36292;DHT22;22327;51.208;6.418;2023-04-24T00:00:36;15.00;94.70
36292;DHT22;22327;51.208;6.418;2023-04-24T00:03:02;15.00;94.60
36292;DHT22;22327;51.208;6.418;2023-04-24T00:05:28;15.00;94.60
36292;DHT22;22327;51.208;6.418;2023-04-24T00:07:54;15.00;94.50
36292;DHT22;22327;51.208;6.418;2023-04-24T00:10:20;14.90;94.30
36292;DHT22;22327;51.208;6.418;2023-04-24T00:12:46;14.90;94.40
36292;DHT22;22327;51.208;6.418;2023-04-24T00:15:12;14.80;94.20
36292;DHT22;22327;51.208;6.418;2023-04-24T00:17:37;14.70;93.90
36292;DHT22;22327;51.208;6.418;2023-04-24T00:20:04;14.50;93.60
36292;DHT22;22327;51.208;6.418;2023-04-24T00:22:30;14.40;93.80
36292;DHT22;22327;51.208;6.418;2023-04-24T00:24:56;14.20;94.00
36292;DHT22;22327;51.208;6.418;2023-04-24T00:27:22;14.00;94.30
36292;DHT22;22327;51.208;6.418;2023-04-24T00:29:48;13.90;94.50
36292;DHT22;22327;51.208;6.418;2023-04-24T00:32:14;13.80;94.60
36292;DHT22;22327;51.208;6.418;2023-04-24T00:34:39;13.80;94.70
36292;DHT22;22327;51.208;6.418;2023-04-24T00:37:05;13.80;94.70
36292;DHT22;22327;51.208;6.418;2023-04-24T00:39:31;13.70;94.70
36292;DHT22;22327;51.208;6.418;2023-04-24T00:41:57;13.60;94.90
36292;DHT22;22327;51.208;6.418;2023-04-24T00:44:22;13.50;95.00
36292;DHT22;22327;51.208;6.418;2023-04-24T00:46:49;13.40;95.20
36292;DHT22;22327;51.208;6.418;2023-04-24T00:49:23;13.40;95.20
36292;DHT22;22327;51.208;6.418;2023-04-24T00:51:49;13.50;95.20
36292;DHT22;22327;51.208;6.418;2023-04-24T00:54:16;13.50;95.20
36292;DHT22;22327;51.208;6.418;2023-04-24T00:56:42;13.50;95.40
36292;DHT22;22327;51.208;6.418;2023-04-24T00:59:09;13.40;95.60
36292;DHT22;22327;51.208;6.418;2023-04-24T01:01:35;13.50;95.70
36292;DHT22;22327;51.208;6.418;2023-04-24T01:04:01;13.50;95.90
36292;DHT22;22327;51.208;6.418;2023-04-24T01:06:28;13.50;96.00
36292;DHT22;22327;51.208;6.418;2023-04-24T01:08:54;13.50;96.00
36292;DHT22;22327;51.208;6.418;2023-04-24T01:11:21;13.60;95.90
36292;DHT22;22327;51.208;6.418;2023-04-24T01:13:47;13.60;95.70
36292;DHT22;22327;51.208;6.418;2023-04-24T01:16:16;13.60;95.50
36292;DHT22;22327;51.208;6.418;2023-04-24T01:18:43;13.60;95.50
36292;DHT22;22327;51.208;6.418;2023-04-24T01:21:09;13.60;95.50
36292;DHT22;22327;51.208;6.418;2023-04-24T01:23:36;13.70;95.40
36292;DHT22;22327;51.208;6.418;2023-04-24T01:26:02;13.60;95.30
36292;DHT22;22327;51.208;6.418;2023-04-24T01:28:28;13.60;95.40
36292;DHT22;22327;51.208;6.418;2023-04-24T01:30:53;13.60;95.30
36292;DHT22;22327;51.208;6.418;2023-04-24T01:33:21;13.60;95.20
36292;DHT22;22327;51.208;6.418;2023-04-24T01:35:47;13.70;95.30
36292;DHT22;22327;51.208;6.418;2023-04-24T01:38:13;13.70;95.20
36292;DHT22;22327;51.208;6.418;2023-04-24T01:40:39;13.70;95.10
36292;DHT22;22327;51.208;6.418;2023-04-24T01:43:04;13.70;95.10
36292;DHT22;22327;51.208;6.418;2023-04-24T01:45:30;13.60;95.10
36292;DHT22;22327;51.208;6.418;2023-04-24T01:47:56;13.60;95.20
36292;DHT22;22327;51.208;6.418;2023-04-24T01:50:22;13.60;95.30
36292;DHT22;22327;51.208;6.418;2023-04-24T01:52:47;13.50;95.20
36292;DHT22;22327;51.208;6.418;2023-04-24T01:55:13;13.60;95.30
36292;DHT22;22327;51.208;6.418;2023-04-24T01:57:39;13.50;95.30
36292;DHT22;22327;51.208;6.418;2023-04-24T02:00:05;13.50;95.30
36292;DHT22;22327;51.208;6.418;2023-04-24T02:02:32;13.50;95.40
36292;DHT22;22327;51.208;6.418;2023-04-24T02:04:58;13.50;95.40
36292;DHT22;22327;51.208;6.418;2023-04-24T02:07:23;13.50;95.50
36292;DHT22;22327;51.208;6.418;2023-04-24T02:09:49;13.50;95.30
36292;DHT22;22327;51.208;6.418;2023-04-24T02:12:15;13.50;95.50
36292;DHT22;22327;51.208;6.418;2023-04-24T02:14:42;13.50;95.40
36292;DHT22;22327;51.208;6.418;2023-04-24T02:17:08;13.60;95.50
36292;DHT22;22327;51.208;6.418;2023-04-24T02:19:34;13.50;95.40
36292;DHT22;22327;51.208;6.418;2023-04-24T02:21:59;13.60;95.50
36292;DHT22;22327;51.208;6.418;2023-04-24T02:24:25;13.50;95.50
36292;DHT22;22327;51.208;6.418;2023-04-24T02:26:51;13.60;95.50
36292;DHT22;22327;51.208;6.418;2023-04-24T02:29:16;13.50;95.60
36292;DHT22;22327;51.208;6.418;2023-04-24T02:31:42;13.50;95.50
36292;DHT22;22327;51.208;6.418;2023-04-24T02:34:07;13.60;95.70
36292;DHT22;22327;51.208;6.418;2023-04-24T02:36:33;13.60;95.50
36292;DHT22;22327;51.208;6.418;2023-04-24T02:38:58;13.60;95.70
36292;DHT22;22327;51.208;6.418;2023-04-24T02:41:24;13.70;95.70
36292;DHT22;22327;51.208;6.418;2023-04-24T02:43:49;13.70;95.50
36292;DHT22;22327;51.208;6.418;2023-04-24T02:46:15;13.70;95.50
36292;DHT22;22327;51.208;6.418;2023-04-24T02:48:40;13.80;95.50
36292;DHT22;22327;51.208;6.418;2023-04-24T02:51:06;13.80;95.20
36292;DHT22;22327;51.208;6.418;2023-04-24T02:53:32;13.80;95.40
36292;DHT22;22327;51.208;6.418;2023-04-24T02:55:58;13.80;95.40
36292;DHT22;22327;51.208;6.418;2023-04-24T02:58:24;13.80;95.20
36292;DHT22;22327;51.208;6.418;2023-04-24T03:00:53;13.70;95.40
36292;DHT22;22327;51.208;6.418;2023-04-24T03:03:19;13.80;95.40
36292;DHT22;22327;51.208;6.418;2023-04-24T03:05:45;13.70;95.30
36292;DHT22;22327;51.208;6.418;2023-04-24T03:08:11;13.80;95.20
36292;DHT22;22327;51.208;6.418;2023-04-24T03:10:36;13.70;95.20
36292;DHT22;22327;51.208;6.418;2023-04-24T03:13:02;13.70;95.40
36292;DHT22;22327;51.208;6.418;2023-04-24T03:15:27;13.70;95.40
36292;DHT22;22327;51.208;6.418;2023-04-24T03:17:53;13.70;95.50
36292;DHT22;22327;51.208;6.418;2023-04-24T03:20:18;13.80;95.40
36292;DHT22;22327;51.208;6.418;2023-04-24T03:22:44;13.70;95.40
36292;DHT22;22327;51.208;6.418;2023-04-24T03:25:10;13.70;95.30
36292;DHT22;22327;51.208;6.418;2023-04-24T03:27:35;13.70;95.40
36292;DHT22;22327;51.208;6.418;2023-04-24T03:30:01;13.70;95.50
36292;DHT22;22327;51.208;6.418;2023-04-24T03:32:27;13.70;95.50
36292;DHT22;22327;51.208;6.418;2023-04-24T03:34:52;13.70;95.40
36292;DHT22;22327;51.208;6.418;2023-04-24T03:37:18;13.80;95.50
36292;DHT22;22327;51.208;6.418;2023-04-24T03:39:44;13.80;95.30
36292;DHT22;22327;51.208;6.418;2023-04-24T03:42:10;13.80;95.50
36292;DHT22;22327;51.208;6.418;2023-04-24T03:44:36;13.80;95.10
36292;DHT22;22327;51.208;6.418;2023-04-24T03:47:01;13.60;95.30
36292;DHT22;22327;51.208;6.418;2023-04-24T03:49:27;13.60;95.40
36292;DHT22;22327;51.208;6.418;2023-04-24T03:51:53;13.70;95.40
36292;DHT22;22327;51.208;6.418;2023-04-24T03:54:19;13.60;95.30
36292;DHT22;22327;51.208;6.418;2023-04-24T03:56:44;13.60;95.30
36292;DHT22;22327;51.208;6.418;2023-04-24T03:59:10;13.60;95.20
36292;DHT22;22327;51.208;6.418;2023-04-24T04:01:36;13.60;95.40
36292;DHT22;22327;51.208;6.418;2023-04-24T04:04:03;13.60;95.30
36292;DHT22;22327;51.208;6.418;2023-04-24T04:06:29;13.60;95.30
36292;DHT22;22327;51.208;6.418;2023-04-24T04:08:56;13.60;95.10
36292;DHT22;22327;51.208;6.418;2023-04-24T04:11:21;13.60;95.00
36292;DHT22;22327;51.208;6.418;2023-04-24T04:13:47;13.50;95.00
36292;DHT22;22327;51.208;6.418;2023-04-24T04:16:13;13.50;95.10
36292;DHT22;22327;51.208;6.418;2023-04-24T04:18:39;13.60;95.10
36292;DHT22;22327;51.208;6.418;2023-04-24T04:21:04;13.60;95.00
36292;DHT22;22327;51.208;6.418;2023-04-24T04:23:30;13.60;94.80
36292;DHT22;22327;51.208;6.418;2023-04-24T04:25:57;13.50;95.00
36292;DHT22;22327;51.208;6.418;2023-04-24T04:28:22;13.50;95.30
36292;DHT22;22327;51.208;6.418;2023-04-24T04:30:50;13.60;95.30
36292;DHT22;22327;51.208;6.418;2023-04-24T04:33:19;13.50;95.30
36292;DHT22;22327;51.208;6.418;2023-04-24T04:35:45;13.40;95.90
36292;DHT22;22327;51.208;6.418;2023-04-24T04:38:14;13.30;96.50
36292;DHT22;22327;51.208;6.418;2023-04-24T04:40:40;13.00;97.30
36292;DHT22;22327;51.208;6.418;2023-04-24T04:43:06;12.90;98.00
36292;DHT22;22327;51.208;6.418;2023-04-24T04:45:31;12.90;98.40
36292;DHT22;22327;51.208;6.418;2023-04-24T04:47:58;12.80;98.40
36292;DHT22;22327;51.208;6.418;2023-04-24T04:50:26;12.80;98.50
36292;DHT22;22327;51.208;6.418;2023-04-24T04:52:52;12.80;98.60
36292;DHT22;22327;51.208;6.418;2023-04-24T04:55:17;12.80;98.60
36292;DHT22;22327;51.208;6.418;2023-04-24T04:57:45;12.80;98.50
36292;DHT22;22327;51.208;6.418;2023-04-24T05:00:12;12.80;98.50
36292;DHT22;22327;51.208;6.418;2023-04-24T05:02:38;12.80;98.70
36292;DHT22;22327;51.208;6.418;2023-04-24T05:05:05;12.70;98.70
36292;DHT22;22327;51.208;6.418;2023-04-24T05:07:31;12.70;98.80
36292;DHT22;22327;51.208;6.418;2023-04-24T05:09:56;12.70;98.80
36292;DHT22;22327;51.208;6.418;2023-04-24T05:12:22;12.70;99.00
36292;DHT22;22327;51.208;6.418;2023-04-24T05:14:47;12.70;99.00
36292;DHT22;22327;51.208;6.418;2023-04-24T05:17:13;12.70;98.90
36292;DHT22;22327;51.208;6.418;2023-04-24T05:19:38;12.70;98.90
36292;DHT22;22327;51.208;6.418;2023-04-24T05:22:04;12.70;98.80
36292;DHT22;22327;51.208;6.418;2023-04-24T05:24:32;12.70;99.00
36292;DHT22;22327;51.208;6.418;2023-04-24T05:26:58;12.80;99.00
36292;DHT22;22327;51.208;6.418;2023-04-24T05:29:24;12.80;98.80
36292;DHT22;22327;51.208;6.418;2023-04-24T05:31:51;12.80;98.70
36292;DHT22;22327;51.208;6.418;2023-04-24T05:34:17;12.80;98.90
36292;DHT22;22327;51.208;6.418;2023-04-24T05:36:42;12.80;99.00
36292;DHT22;22327;51.208;6.418;2023-04-24T05:39:08;12.80;99.10
36292;DHT22;22327;51.208;6.418;2023-04-24T05:41:34;12.80;99.00
36292;DHT22;22327;51.208;6.418;2023-04-24T05:43:59;12.90;99.40
36292;DHT22;22327;51.208;6.418;2023-04-24T05:46:25;12.90;99.10
36292;DHT22;22327;51.208;6.418;2023-04-24T05:48:50;12.90;99.10
36292;DHT22;22327;51.208;6.418;2023-04-24T05:51:16;13.00;99.20
36292;DHT22;22327;51.208;6.418;2023-04-24T05:53:41;13.00;99.10
36292;DHT22;22327;51.208;6.418;2023-04-24T05:56:07;12.90;99.30
36292;DHT22;22327;51.208;6.418;2023-04-24T05:58:32;12.90;99.40
36292;DHT22;22327;51.208;6.418;2023-04-24T06:00:58;12.90;99.20
36292;DHT22;22327;51.208;6.418;2023-04-24T06:03:26;12.90;99.50
36292;DHT22;22327;51.208;6.418;2023-04-24T06:05:52;12.90;99.40
36292;DHT22;22327;51.208;6.418;2023-04-24T06:08:18;12.80;99.60
36292;DHT22;22327;51.208;6.418;2023-04-24T06:10:44;12.80;99.60
36292;DHT22;22327;51.208;6.418;2023-04-24T06:13:13;12.70;99.80
36292;DHT22;22327;51.208;6.418;2023-04-24T06:15:39;12.70;99.90
36292;DHT22;22327;51.208;6.418;2023-04-24T06:18:06;12.60;99.90
36292;DHT22;22327;51.208;6.418;2023-04-24T06:20:31;12.60;99.90
36292;DHT22;22327;51.208;6.418;2023-04-24T06:23:02;12.50;99.90
36292;DHT22;22327;51.208;6.418;2023-04-24T06:25:28;12.50;99.90
36292;DHT22;22327;51.208;6.418;2023-04-24T06:27:55;12.40;99.90
36292;DHT22;22327;51.208;6.418;2023-04-24T06:30:21;12.40;99.90
36292;DHT22;22327;51.208;6.418;2023-04-24T06:32:46;12.40;99.90
36292;DHT22;22327;51.208;6.418;2023-04-24T06:35:12;12.40;99.90
36292;DHT22;22327;51.208;6.418;2023-04-24T06:37:39;12.50;99.90
36292;DHT22;22327;51.208;6.418;2023-04-24T06:40:06;12.40;99.90
36292;DHT22;22327;51.208;6.418;2023-04-24T06:42:31;12.40;99.90
36292;DHT22;22327;51.208;6.418;2023-04-24T06:44:57;12.30;99.90
36292;DHT22;22327;51.208;6.418;2023-04-24T06:47:23;12.20;99.90
36292;DHT22;22327;51.208;6.418;2023-04-24T06:49:48;12.10;99.90
36292;DHT22;22327;51.208;6.418;2023-04-24T06:52:16;12.00;99.90
36292;DHT22;22327;51.208;6.418;2023-04-24T06:54:42;12.00;99.90
36292;DHT22;22327;51.208;6.418;2023-04-24T06:57:08;12.00;99.90
36292;DHT22;22327;51.208;6.418;2023-04-24T06:59:33;12.10;99.90
36292;DHT22;22327;51.208;6.418;2023-04-24T07:01:59;12.00;99.90
36292;DHT22;22327;51.208;6.418;2023-04-24T07:04:25;11.90;99.90
36292;DHT22;22327;51.208;6.418;2023-04-24T07:06:51;11.70;99.90
36292;DHT22;22327;51.208;6.418;2023-04-24T07:09:19;11.50;99.90
36292;DHT22;22327;51.208;6.418;2023-04-24T07:11:45;11.40;99.90
36292;DHT22;22327;51.208;6.418;2023-04-24T07:14:11;11.30;99.90
36292;DHT22;22327;51.208;6.418;2023-04-24T07:16:37;11.20;99.90
36292;DHT22;22327;51.208;6.418;2023-04-24T07:19:03;11.10;99.90
36292;DHT22;22327;51.208;6.418;2023-04-24T07:21:28;11.00;99.90
36292;DHT22;22327;51.208;6.418;2023-04-24T07:23:54;10.90;99.90
36292;DHT22;22327;51.208;6.418;2023-04-24T07:26:20;10.90;99.90
36292;DHT22;22327;51.208;6.418;2023-04-24T07:28:46;10.90;99.90
36292;DHT22;22327;51.208;6.418;2023-04-24T07:31:12;10.90;99.90
36292;DHT22;22327;51.208;6.418;2023-04-24T07:33:37;10.90;99.90
36292;DHT22;22327;51.208;6.418;2023-04-24T07:36:03;10.90;99.90
36292;DHT22;22327;51.208;6.418;2023-04-24T07:38:30;10.90;99.90
36292;DHT22;22327;51.208;6.418;2023-04-24T07:40:55;10.90;99.90
36292;DHT22;22327;51.208;6.418;2023-04-24T07:43:21;10.90;99.90
36292;DHT22;22327;51.208;6.418;2023-04-24T07:45:47;11.00;99.90
36292;DHT22;22327;51.208;6.418;2023-04-24T07:48:12;11.00;99.90
36292;DHT22;22327;51.208;6.418;2023-04-24T07:50:41;10.90;99.90
36292;DHT22;22327;51.208;6.418;2023-04-24T07:53:07;10.90;99.90
36292;DHT22;22327;51.208;6.418;2023-04-24T07:55:32;10.90;99.90
36292;DHT22;22327;51.208;6.418;2023-04-24T07:57:58;10.90;99.90
36292;DHT22;22327;51.208;6.418;2023-04-24T08:00:23;10.90;99.90
36292;DHT22;22327;51.208;6.418;2023-04-24T08:02:49;10.90;99.90
36292;DHT22;22327;51.208;6.418;2023-04-24T08:05:15;10.90;99.90
36292;DHT22;22327;51.208;6.418;2023-04-24T08:07:40;11.00;99.90
36292;DHT22;22327;51.208;6.418;2023-04-24T08:10:09;11.10;99.90
36292;DHT22;22327;51.208;6.418;2023-04-24T08:12:35;11.10;99.90
36292;DHT22;22327;51.208;6.418;2023-04-24T08:15:01;11.10;99.90
36292;DHT22;22327;51.208;6.418;2023-04-24T08:17:26;11.10;99.90
36292;DHT22;22327;51.208;6.418;2023-04-24T08:19:52;11.10;99.90
36292;DHT22;22327;51.208;6.418;2023-04-24T08:22:24;11.10;99.90
36292;DHT22;22327;51.208;6.418;2023-04-24T08:24:49;11.10;99.90
36292;DHT22;22327;51.208;6.418;2023-04-24T08:27:15;11.10;99.90
36292;DHT22;22327;51.208;6.418;2023-04-24T08:29:40;11.10;99.90
36292;DHT22;22327;51.208;6.418;2023-04-24T08:32:06;11.10;99.90
36292;DHT22;22327;51.208;6.418;2023-04-24T08:34:31;11.10;99.90
36292;DHT22;22327;51.208;6.418;2023-04-24T08:36:57;11.10;99.90
36292;DHT22;22327;51.208;6.418;2023-04-24T08:39:23;11.20;99.90
36292;DHT22;22327;51.208;6.418;2023-04-24T08:41:49;11.20;99.90
36292;DHT22;22327;51.208;6.418;2023-04-24T08:44:16;11.20;99.90
36292;DHT22;22327;51.208;6.418;2023-04-24T08:46:43;11.20;99.90
36292;DHT22;22327;51.208;6.418;2023-04-24T08:49:12;11.30;99.90
36292;DHT22;22327;51.208;6.418;2023-04-24T08:51:38;11.30;99.90
36292;DHT22;22327;51.208;6.418;2023-04-24T08:54:04;11.30;99.90
36292;DHT22;22327;51.208;6.418;2023-04-24T08:56:33;11.20;99.90
36292;DHT22;22327;51.208;6.418;2023-04-24T08:58:59;11.20;99.90
36292;DHT22;22327;51.208;6.418;2023-04-24T09:01:27;11.20;99.90
36292;DHT22;22327;51.208;6.418;2023-04-24T09:03:54;11.30;99.90
36292;DHT22;22327;51.208;6.418;2023-04-24T09:06:21;11.30;99.90
36292;DHT22;22327;51.208;6.418;2023-04-24T09:08:51;11.30;99.90
36292;DHT22;22327;51.208;6.418;2023-04-24T09:11:18;11.40;99.90
36292;DHT22;22327;51.208;6.418;2023-04-24T09:13:45;11.40;99.90
36292;DHT22;22327;51.208;6.418;2023-04-24T09:16:11;11.40;99.90
36292;DHT22;22327;51.208;6.418;2023-04-24T09:18:37;11.50;99.90
36292;DHT22;22327;51.208;6.418;2023-04-24T09:21:03;11.60;99.90
36292;DHT22;22327;51.208;6.418;2023-04-24T09:23:30;11.70;99.90
36292;DHT22;22327;51.208;6.418;2023-04-24T09:25:58;11.70;99.90
36292;DHT22;22327;51.208;6.418;2023-04-24T09:28:29;11.70;99.90
36292;DHT22;22327;51.208;6.418;2023-04-24T09:33:30;11.90;99.90
36292;DHT22;22327;51.208;6.418;2023-04-24T09:35:56;11.90;99.90
36292;DHT22;22327;51.208;6.418;2023-04-24T09:38:35;12.00;99.90
36292;DHT22;22327;51.208;6.418;2023-04-24T09:41:06;11.90;99.90
36292;DHT22;22327;51.208;6.418;2023-04-24T09:43:32;12.00;99.90
36292;DHT22;22327;51.208;6.418;2023-04-24T09:46:00;12.10;99.90
36292;DHT22;22327;51.208;6.418;2023-04-24T09:48:47;12.20;99.90
36292;DHT22;22327;51.208;6.418;2023-04-24T09:51:12;12.40;99.90
36292;DHT22;22327;51.208;6.418;2023-04-24T09:53:38;12.50;99.90
36292;DHT22;22327;51.208;6.418;2023-04-24T09:56:08;12.50;99.90
36292;DHT22;22327;51.208;6.418;2023-04-24T09:58:35;12.60;99.90
36292;DHT22;22327;51.208;6.418;2023-04-24T10:01:01;12.70;99.90
36292;DHT22;22327;51.208;6.418;2023-04-24T10:03:29;12.60;99.90
36292;DHT22;22327;51.208;6.418;2023-04-24T10:05:59;12.70;99.90
36292;DHT22;22327;51.208;6.418;2023-04-24T10:08:25;12.70;99.90
36292;DHT22;22327;51.208;6.418;2023-04-24T10:10:52;12.60;99.90
36292;DHT22;22327;51.208;6.418;2023-04-24T10:13:18;12.60;99.90
36292;DHT22;22327;51.208;6.418;2023-04-24T10:15:44;12.60;99.90
36292;DHT22;22327;51.208;6.418;2023-04-24T10:18:11;12.50;99.90
36292;DHT22;22327;51.208;6.418;2023-04-24T10:20:39;12.50;99.90
36292;DHT22;22327;51.208;6.418;2023-04-24T10:23:05;12.40;99.90
36292;DHT22;22327;51.208;6.418;2023-04-24T10:25:33;12.40;99.90
36292;DHT22;22327;51.208;6.418;2023-04-24T10:27:59;12.50;99.90
36292;DHT22;22327;51.208;6.418;2023-04-24T10:30:27;12.80;99.90
36292;DHT22;22327;51.208;6.418;2023-04-24T10:32:53;13.10;99.90
36292;DHT22;22327;51.208;6.418;2023-04-24T10:35:19;13.40;99.90
36292;DHT22;22327;51.208;6.418;2023-04-24T10:37:54;13.80;99.90
36292;DHT22;22327;51.208;6.418;2023-04-24T10:40:27;14.00;99.90
36292;DHT22;22327;51.208;6.418;2023-04-24T10:42:56;14.00;99.90
36292;DHT22;22327;51.208;6.418;2023-04-24T10:45:23;14.10;99.90
36292;DHT22;22327;51.208;6.418;2023-04-24T10:50:27;14.50;99.90
36292;DHT22;22327;51.208;6.418;2023-04-24T10:52:53;14.60;99.40
36292;DHT22;22327;51.208;6.418;2023-04-24T10:55:50;14.60;99.40
36292;DHT22;22327;51.208;6.418;2023-04-24T10:58:17;14.70;99.30
36292;DHT22;22327;51.208;6.418;2023-04-24T11:00:58;14.80;97.80
36292;DHT22;22327;51.208;6.418;2023-04-24T11:03:27;14.80;98.60
36292;DHT22;22327;51.208;6.418;2023-04-24T11:08:25;14.90;98.40
36292;DHT22;22327;51.208;6.418;2023-04-24T11:11:03;14.80;97.00
36292;DHT22;22327;51.208;6.418;2023-04-24T11:21:39;15.40;97.20
36292;DHT22;22327;51.208;6.418;2023-04-24T11:26:58;15.70;95.00
36292;DHT22;22327;51.208;6.418;2023-04-24T11:29:39;15.60;95.60
36292;DHT22;22327;51.208;6.418;2023-04-24T11:34:51;15.50;95.20
36292;DHT22;22327;51.208;6.418;2023-04-24T11:37:17;15.40;93.70
36292;DHT22;22327;51.208;6.418;2023-04-24T11:39:43;15.20;93.80
36292;DHT22;22327;51.208;6.418;2023-04-24T11:42:09;15.00;93.30
36292;DHT22;22327;51.208;6.418;2023-04-24T11:44:35;15.00;94.10
36292;DHT22;22327;51.208;6.418;2023-04-24T11:47:04;15.10;94.20
36292;DHT22;22327;51.208;6.418;2023-04-24T11:49:30;15.30;93.40
36292;DHT22;22327;51.208;6.418;2023-04-24T11:51:55;15.50;94.80
36292;DHT22;22327;51.208;6.418;2023-04-24T11:54:21;15.80;93.10
36292;DHT22;22327;51.208;6.418;2023-04-24T11:56:47;16.10;93.50
36292;DHT22;22327;51.208;6.418;2023-04-24T11:59:14;16.30;91.60
36292;DHT22;22327;51.208;6.418;2023-04-24T12:01:46;16.50;91.90
36292;DHT22;22327;51.208;6.418;2023-04-24T12:04:12;16.50;90.40
36292;DHT22;22327;51.208;6.418;2023-04-24T12:06:38;16.50;90.80
36292;DHT22;22327;51.208;6.418;2023-04-24T12:09:03;16.60;90.20
36292;DHT22;22327;51.208;6.418;2023-04-24T12:11:29;16.50;87.40
36292;DHT22;22327;51.208;6.418;2023-04-24T12:13:55;16.40;88.30
36292;DHT22;22327;51.208;6.418;2023-04-24T12:16:20;16.30;87.70
36292;DHT22;22327;51.208;6.418;2023-04-24T12:18:46;16.20;88.40
36292;DHT22;22327;51.208;6.418;2023-04-24T12:21:16;16.20;86.50
36292;DHT22;22327;51.208;6.418;2023-04-24T12:23:45;16.10;88.30
36292;DHT22;22327;51.208;6.418;2023-04-24T12:26:12;16.10;86.00
36292;DHT22;22327;51.208;6.418;2023-04-24T12:28:38;16.00;88.70
36292;DHT22;22327;51.208;6.418;2023-04-24T12:31:04;16.10;88.40
36292;DHT22;22327;51.208;6.418;2023-04-24T12:33:35;16.00;87.00
36292;DHT22;22327;51.208;6.418;2023-04-24T12:36:01;16.00;84.40
36292;DHT22;22327;51.208;6.418;2023-04-24T12:38:27;16.00;85.40
36292;DHT22;22327;51.208;6.418;2023-04-24T12:41:08;16.00;86.20
36292;DHT22;22327;51.208;6.418;2023-04-24T12:43:34;15.90;84.50
36292;DHT22;22327;51.208;6.418;2023-04-24T12:46:00;15.80;85.70
36292;DHT22;22327;51.208;6.418;2023-04-24T12:48:27;15.70;85.70
36292;DHT22;22327;51.208;6.418;2023-04-24T12:50:52;15.70;88.40
36292;DHT22;22327;51.208;6.418;2023-04-24T12:53:18;15.70;85.60
36292;DHT22;22327;51.208;6.418;2023-04-24T12:55:44;15.80;88.70
36292;DHT22;22327;51.208;6.418;2023-04-24T12:58:10;16.00;87.90
36292;DHT22;22327;51.208;6.418;2023-04-24T13:00:36;16.20;87.80
36292;DHT22;22327;51.208;6.418;2023-04-24T13:03:03;16.40;87.80
36292;DHT22;22327;51.208;6.418;2023-04-24T13:05:29;16.60;87.20
36292;DHT22;22327;51.208;6.418;2023-04-24T13:07:55;16.60;88.80
36292;DHT22;22327;51.208;6.418;2023-04-24T13:10:20;16.80;87.30
36292;DHT22;22327;51.208;6.418;2023-04-24T13:12:46;16.90;86.70
36292;DHT22;22327;51.208;6.418;2023-04-24T13:15:12;17.00;86.10
36292;DHT22;22327;51.208;6.418;2023-04-24T13:17:37;17.00;85.50
36292;DHT22;22327;51.208;6.418;2023-04-24T13:20:04;17.00;86.80
36292;DHT22;22327;51.208;6.418;2023-04-24T13:22:29;17.10;87.60
36292;DHT22;22327;51.208;6.418;2023-04-24T13:24:55;17.20;84.30
36292;DHT22;22327;51.208;6.418;2023-04-24T13:27:21;17.00;85.10
36292;DHT22;22327;51.208;6.418;2023-04-24T13:29:47;16.80;84.90
36292;DHT22;22327;51.208;6.418;2023-04-24T13:32:12;16.50;84.70
36292;DHT22;22327;51.208;6.418;2023-04-24T13:34:38;16.30;86.10
36292;DHT22;22327;51.208;6.418;2023-04-24T13:37:04;16.20;86.30
36292;DHT22;22327;51.208;6.418;2023-04-24T13:39:30;16.00;82.90
36292;DHT22;22327;51.208;6.418;2023-04-24T13:41:57;15.80;84.30
36292;DHT22;22327;51.208;6.418;2023-04-24T13:44:23;15.70;85.10
36292;DHT22;22327;51.208;6.418;2023-04-24T13:46:51;15.50;85.40
36292;DHT22;22327;51.208;6.418;2023-04-24T13:49:18;15.40;86.40
36292;DHT22;22327;51.208;6.418;2023-04-24T13:51:44;15.40;86.00
36292;DHT22;22327;51.208;6.418;2023-04-24T13:54:11;15.50;85.40
36292;DHT22;22327;51.208;6.418;2023-04-24T13:56:36;15.50;85.60
36292;DHT22;22327;51.208;6.418;2023-04-24T13:59:02;15.60;85.60
36292;DHT22;22327;51.208;6.418;2023-04-24T14:01:28;15.70;82.50
36292;DHT22;22327;51.208;6.418;2023-04-24T14:03:54;15.70;84.10
36292;DHT22;22327;51.208;6.418;2023-04-24T14:06:21;15.70;82.80
36292;DHT22;22327;51.208;6.418;2023-04-24T14:08:47;15.60;83.50
36292;DHT22;22327;51.208;6.418;2023-04-24T14:11:12;15.60;83.00
36292;DHT22;22327;51.208;6.418;2023-04-24T14:13:38;15.60;86.30
36292;DHT22;22327;51.208;6.418;2023-04-24T14:16:05;15.70;84.80
36292;DHT22;22327;51.208;6.418;2023-04-24T14:18:31;15.70;86.30
36292;DHT22;22327;51.208;6.418;2023-04-24T14:20:57;16.00;86.50
36292;DHT22;22327;51.208;6.418;2023-04-24T14:23:22;16.20;86.00
36292;DHT22;22327;51.208;6.418;2023-04-24T14:25:48;16.50;85.50
36292;DHT22;22327;51.208;6.418;2023-04-24T14:28:20;16.60;81.30
36292;DHT22;22327;51.208;6.418;2023-04-24T14:30:46;16.60;80.50
36292;DHT22;22327;51.208;6.418;2023-04-24T14:33:12;16.50;82.10
36292;DHT22;22327;51.208;6.418;2023-04-24T14:35:39;16.40;84.40
36292;DHT22;22327;51.208;6.418;2023-04-24T14:38:05;16.50;81.70
36292;DHT22;22327;51.208;6.418;2023-04-24T14:40:31;16.60;81.40
36292;DHT22;22327;51.208;6.418;2023-04-24T14:42:57;16.70;80.60
36292;DHT22;22327;51.208;6.418;2023-04-24T14:45:24;16.80;82.70
36292;DHT22;22327;51.208;6.418;2023-04-24T14:47:50;16.90;81.20
36292;DHT22;22327;51.208;6.418;2023-04-24T14:50:15;16.90;79.70
36292;DHT22;22327;51.208;6.418;2023-04-24T14:52:41;16.90;76.60
36292;DHT22;22327;51.208;6.418;2023-04-24T14:55:06;16.80;78.90
36292;DHT22;22327;51.208;6.418;2023-04-24T14:57:33;16.60;78.80
36292;DHT22;22327;51.208;6.418;2023-04-24T14:59:58;16.60;80.40
36292;DHT22;22327;51.208;6.418;2023-04-24T15:02:24;16.50;79.50
36292;DHT22;22327;51.208;6.418;2023-04-24T15:04:50;16.50;80.60
36292;DHT22;22327;51.208;6.418;2023-04-24T15:07:15;16.50;79.10
36292;DHT22;22327;51.208;6.418;2023-04-24T15:09:41;16.50;82.20
36292;DHT22;22327;51.208;6.418;2023-04-24T15:12:08;16.50;82.00
36292;DHT22;22327;51.208;6.418;2023-04-24T15:14:33;16.50;79.50
36292;DHT22;22327;51.208;6.418;2023-04-24T15:16:59;16.30;78.30
36292;DHT22;22327;51.208;6.418;2023-04-24T15:19:25;16.20;79.90
36292;DHT22;22327;51.208;6.418;2023-04-24T15:21:50;16.10;79.50
36292;DHT22;22327;51.208;6.418;2023-04-24T15:24:16;16.10;78.90
36292;DHT22;22327;51.208;6.418;2023-04-24T15:26:41;16.00;78.80
36292;DHT22;22327;51.208;6.418;2023-04-24T15:29:07;15.90;79.80
36292;DHT22;22327;51.208;6.418;2023-04-24T15:31:32;15.90;82.10
36292;DHT22;22327;51.208;6.418;2023-04-24T15:33:58;16.00;80.40
36292;DHT22;22327;51.208;6.418;2023-04-24T15:36:23;16.00;79.00
36292;DHT22;22327;51.208;6.418;2023-04-24T15:38:49;15.90;80.30
36292;DHT22;22327;51.208;6.418;2023-04-24T15:41:15;15.90;80.50
36292;DHT22;22327;51.208;6.418;2023-04-24T15:43:40;15.90;82.60
36292;DHT22;22327;51.208;6.418;2023-04-24T15:46:06;15.90;82.30